Tambon Ban Suan, Thailand

8:11 PM ICT on December 18, 2014 (GMT +0700)
Bangkok (Suvarnabhumi) | Change Station
CLOSE
Current Station
Airport
Location: Bangkok (Suvarnabhumi),
Elevation: 7 ft
Nearby Weather Stations

Elev 7 ft 13.36 °N, 100.98 °E | Updated 11 minutes ago

Clear
Clear
77 °F
Feels Like 77 °F
N
5
Wind Variable Wind from NE

Today
High -- | Low -- °F
--% Chance of Precip.
Yesterday
High -- | Low -- °F
Precip. -- in
6:32 AM 5:52 PM
Waning Crescent, 14% visible
Pressure 30.04 in
Visibility -9999.0 miles
Clouds
Dew Point 59 °F
Humidity 54%
Rainfall 0.00 in
Snow Depth Not available.
UV Not available.
Pollen Not available.
Air Quality Not available.
Flu Activity Not available.
METAR VTBS 181300Z 04004KT CAVOK 25/15 Q1017 NOSIG

More Conditions Fewer Conditions

Pressure 30.04 in
Visibility -9999.0 miles
Clouds
Dew Point 59 °F
Humidity 54%
Rainfall 0.00 in
Snow Depth Not available.
UV Not available.
Pollen Not available.
Air Quality Not available.
Flu Activity Not available.
METAR VTBS 181300Z 04004KT CAVOK 25/15 Q1017 NOSIG

More Conditions Fewer Conditions

10-Day Weather Forecast

Almanac

Astronomy

Dec. 18, 2014 Rise Set
Actual Time
Civil Twilight
Nautical Twilight
Astronomical Twilight
Moon
Length of Visible Light
Length of Day
Tomorrow will be .
, % of the Moon is Illuminated

Today's Extremes

Country Highs Country Lows

Community

WunderPhotos

Upload Photos

1,778,925 photos uploaded!

WunderBlogs® & News

Nearby

Air Quality

  Air Quality AQ Index Pollutant
Not available.

Snow Depth

Station Depth Elevation

Earthquake Activity

City Distance Mag. Time & Date
Minimum magnitude displayed is 2.5.

Coastal Water Temperatures

Place Temperature

Nearby Weather Stations